sensor_id;sensor_type;location;lat;lon;timestamp;temperature;humidity
12839;DHT22;6486;51.034;5.262;2023-04-19T00:00:56;11.80;60.80
12839;DHT22;6486;51.034;5.262;2023-04-19T00:03:22;11.80;60.80
12839;DHT22;6486;51.034;5.262;2023-04-19T00:05:50;11.80;60.90
12839;DHT22;6486;51.034;5.262;2023-04-19T00:08:18;11.80;60.90
12839;DHT22;6486;51.034;5.262;2023-04-19T00:10:43;11.80;60.90
12839;DHT22;6486;51.034;5.262;2023-04-19T00:13:09;11.80;60.90
12839;DHT22;6486;51.034;5.262;2023-04-19T00:15:36;11.80;61.00
12839;DHT22;6486;51.034;5.262;2023-04-19T00:18:01;11.80;61.00
12839;DHT22;6486;51.034;5.262;2023-04-19T00:20:27;11.90;61.10
12839;DHT22;6486;51.034;5.262;2023-04-19T00:22:53;11.90;61.20
12839;DHT22;6486;51.034;5.262;2023-04-19T00:25:19;11.90;61.20
12839;DHT22;6486;51.034;5.262;2023-04-19T00:27:44;12.00;61.40
12839;DHT22;6486;51.034;5.262;2023-04-19T00:30:10;12.00;61.40
12839;DHT22;6486;51.034;5.262;2023-04-19T00:32:36;12.00;61.40
12839;DHT22;6486;51.034;5.262;2023-04-19T00:35:01;12.10;61.50
12839;DHT22;6486;51.034;5.262;2023-04-19T00:37:28;12.10;61.40
12839;DHT22;6486;51.034;5.262;2023-04-19T00:39:53;12.20;61.60
12839;DHT22;6486;51.034;5.262;2023-04-19T00:42:19;12.20;61.70
12839;DHT22;6486;51.034;5.262;2023-04-19T00:44:45;12.20;61.60
12839;DHT22;6486;51.034;5.262;2023-04-19T00:47:11;12.20;61.70
12839;DHT22;6486;51.034;5.262;2023-04-19T00:49:37;12.30;61.70
12839;DHT22;6486;51.034;5.262;2023-04-19T00:52:03;12.30;61.70
12839;DHT22;6486;51.034;5.262;2023-04-19T00:54:29;12.30;61.70
12839;DHT22;6486;51.034;5.262;2023-04-19T00:56:55;12.30;61.70
12839;DHT22;6486;51.034;5.262;2023-04-19T00:59:21;12.40;61.90
12839;DHT22;6486;51.034;5.262;2023-04-19T01:01:47;12.40;61.90
12839;DHT22;6486;51.034;5.262;2023-04-19T01:04:13;12.40;61.90
12839;DHT22;6486;51.034;5.262;2023-04-19T01:06:40;12.40;61.90
12839;DHT22;6486;51.034;5.262;2023-04-19T01:09:06;12.50;62.60
12839;DHT22;6486;51.034;5.262;2023-04-19T01:11:33;12.50;61.90
12839;DHT22;6486;51.034;5.262;2023-04-19T01:13:58;12.50;61.90
12839;DHT22;6486;51.034;5.262;2023-04-19T01:16:25;12.50;62.00
12839;DHT22;6486;51.034;5.262;2023-04-19T01:18:51;12.50;62.70
12839;DHT22;6486;51.034;5.262;2023-04-19T01:21:17;12.50;62.10
12839;DHT22;6486;51.034;5.262;2023-04-19T01:23:43;12.50;62.10
12839;DHT22;6486;51.034;5.262;2023-04-19T01:26:08;12.50;62.10
12839;DHT22;6486;51.034;5.262;2023-04-19T01:28:34;12.60;62.20
12839;DHT22;6486;51.034;5.262;2023-04-19T01:31:00;12.60;62.20
12839;DHT22;6486;51.034;5.262;2023-04-19T01:33:25;12.60;62.20
12839;DHT22;6486;51.034;5.262;2023-04-19T01:35:51;12.60;62.20
12839;DHT22;6486;51.034;5.262;2023-04-19T01:38:17;12.60;62.20
12839;DHT22;6486;51.034;5.262;2023-04-19T01:40:43;12.60;62.20
12839;DHT22;6486;51.034;5.262;2023-04-19T01:43:13;12.60;62.20
12839;DHT22;6486;51.034;5.262;2023-04-19T01:45:39;12.60;62.20
12839;DHT22;6486;51.034;5.262;2023-04-19T01:48:05;12.70;63.00
12839;DHT22;6486;51.034;5.262;2023-04-19T01:50:31;12.70;62.30
12839;DHT22;6486;51.034;5.262;2023-04-19T01:52:57;12.70;62.40
12839;DHT22;6486;51.034;5.262;2023-04-19T01:55:22;12.70;62.40
12839;DHT22;6486;51.034;5.262;2023-04-19T01:57:48;12.70;62.40
12839;DHT22;6486;51.034;5.262;2023-04-19T02:00:14;12.70;62.40
12839;DHT22;6486;51.034;5.262;2023-04-19T02:02:42;12.70;62.40
12839;DHT22;6486;51.034;5.262;2023-04-19T02:05:08;12.80;62.60
12839;DHT22;6486;51.034;5.262;2023-04-19T02:07:34;12.80;62.60
12839;DHT22;6486;51.034;5.262;2023-04-19T02:09:59;12.80;62.60
12839;DHT22;6486;51.034;5.262;2023-04-19T02:12:26;12.70;62.50
12839;DHT22;6486;51.034;5.262;2023-04-19T02:14:55;12.80;62.60
12839;DHT22;6486;51.034;5.262;2023-04-19T02:17:22;12.80;62.70
12839;DHT22;6486;51.034;5.262;2023-04-19T02:19:48;12.80;62.70
12839;DHT22;6486;51.034;5.262;2023-04-19T02:22:13;12.80;62.70
12839;DHT22;6486;51.034;5.262;2023-04-19T02:24:39;12.80;63.40
12839;DHT22;6486;51.034;5.262;2023-04-19T02:27:05;12.80;62.70
12839;DHT22;6486;51.034;5.262;2023-04-19T02:29:31;12.80;62.70
12839;DHT22;6486;51.034;5.262;2023-04-19T02:31:57;12.80;62.70
12839;DHT22;6486;51.034;5.262;2023-04-19T02:34:22;12.80;62.70
12839;DHT22;6486;51.034;5.262;2023-04-19T02:36:48;12.80;62.70
12839;DHT22;6486;51.034;5.262;2023-04-19T02:39:13;12.80;62.80
12839;DHT22;6486;51.034;5.262;2023-04-19T02:41:40;12.80;62.80
12839;DHT22;6486;51.034;5.262;2023-04-19T02:44:05;12.80;62.80
12839;DHT22;6486;51.034;5.262;2023-04-19T02:46:31;12.80;62.80
12839;DHT22;6486;51.034;5.262;2023-04-19T02:48:56;12.80;62.80
12839;DHT22;6486;51.034;5.262;2023-04-19T02:51:22;12.80;62.80
12839;DHT22;6486;51.034;5.262;2023-04-19T02:53:47;12.80;62.90
12839;DHT22;6486;51.034;5.262;2023-04-19T02:56:13;12.80;62.90
12839;DHT22;6486;51.034;5.262;2023-04-19T02:58:38;12.80;63.00
12839;DHT22;6486;51.034;5.262;2023-04-19T03:01:04;12.80;63.00
12839;DHT22;6486;51.034;5.262;2023-04-19T03:03:30;12.80;63.00
12839;DHT22;6486;51.034;5.262;2023-04-19T03:05:56;12.80;63.10
12839;DHT22;6486;51.034;5.262;2023-04-19T03:08:22;12.80;63.10
12839;DHT22;6486;51.034;5.262;2023-04-19T03:10:47;12.80;63.10
12839;DHT22;6486;51.034;5.262;2023-04-19T03:13:13;12.80;63.10
12839;DHT22;6486;51.034;5.262;2023-04-19T03:15:38;12.80;63.10
12839;DHT22;6486;51.034;5.262;2023-04-19T03:18:04;12.70;63.00
12839;DHT22;6486;51.034;5.262;2023-04-19T03:20:30;12.70;63.00
12839;DHT22;6486;51.034;5.262;2023-04-19T03:22:55;12.70;63.10
12839;DHT22;6486;51.034;5.262;2023-04-19T03:25:21;12.60;63.10
12839;DHT22;6486;51.034;5.262;2023-04-19T03:27:47;12.60;63.20
12839;DHT22;6486;51.034;5.262;2023-04-19T03:30:14;12.50;63.10
12839;DHT22;6486;51.034;5.262;2023-04-19T03:32:39;12.50;63.30
12839;DHT22;6486;51.034;5.262;2023-04-19T03:35:05;12.40;63.10
12839;DHT22;6486;51.034;5.262;2023-04-19T03:37:31;12.40;63.30
12839;DHT22;6486;51.034;5.262;2023-04-19T03:39:56;12.30;63.20
12839;DHT22;6486;51.034;5.262;2023-04-19T03:42:22;12.30;63.30
12839;DHT22;6486;51.034;5.262;2023-04-19T03:44:47;12.30;63.30
12839;DHT22;6486;51.034;5.262;2023-04-19T03:47:13;12.20;63.30
12839;DHT22;6486;51.034;5.262;2023-04-19T03:49:38;12.20;63.30
12839;DHT22;6486;51.034;5.262;2023-04-19T03:52:04;12.20;63.50
12839;DHT22;6486;51.034;5.262;2023-04-19T03:54:30;12.10;63.40
12839;DHT22;6486;51.034;5.262;2023-04-19T03:56:55;12.10;63.50
12839;DHT22;6486;51.034;5.262;2023-04-19T03:59:21;12.10;63.60
12839;DHT22;6486;51.034;5.262;2023-04-19T04:01:47;12.00;63.60
12839;DHT22;6486;51.034;5.262;2023-04-19T04:04:12;12.00;63.60
12839;DHT22;6486;51.034;5.262;2023-04-19T04:06:38;12.00;63.80
12839;DHT22;6486;51.034;5.262;2023-04-19T04:09:03;12.00;63.80
12839;DHT22;6486;51.034;5.262;2023-04-19T04:11:29;12.00;63.90
12839;DHT22;6486;51.034;5.262;2023-04-19T04:13:55;12.00;64.00
12839;DHT22;6486;51.034;5.262;2023-04-19T04:16:21;11.90;64.20
12839;DHT22;6486;51.034;5.262;2023-04-19T04:18:47;11.90;64.20
12839;DHT22;6486;51.034;5.262;2023-04-19T04:21:12;11.90;64.30
12839;DHT22;6486;51.034;5.262;2023-04-19T04:23:38;11.90;64.40
12839;DHT22;6486;51.034;5.262;2023-04-19T04:26:03;11.90;64.40
12839;DHT22;6486;51.034;5.262;2023-04-19T04:28:30;12.00;64.60
12839;DHT22;6486;51.034;5.262;2023-04-19T04:30:57;12.00;64.60
12839;DHT22;6486;51.034;5.262;2023-04-19T04:33:24;12.00;64.70
12839;DHT22;6486;51.034;5.262;2023-04-19T04:35:50;12.00;64.80
12839;DHT22;6486;51.034;5.262;2023-04-19T04:38:16;12.10;64.90
12839;DHT22;6486;51.034;5.262;2023-04-19T04:40:42;12.10;64.90
12839;DHT22;6486;51.034;5.262;2023-04-19T04:43:08;12.10;65.00
12839;DHT22;6486;51.034;5.262;2023-04-19T04:45:35;12.10;65.00
12839;DHT22;6486;51.034;5.262;2023-04-19T04:48:02;12.20;65.10
12839;DHT22;6486;51.034;5.262;2023-04-19T04:50:27;12.20;65.10
12839;DHT22;6486;51.034;5.262;2023-04-19T04:52:53;12.20;65.10
12839;DHT22;6486;51.034;5.262;2023-04-19T04:55:19;12.20;65.20
12839;DHT22;6486;51.034;5.262;2023-04-19T04:57:44;12.30;65.40
12839;DHT22;6486;51.034;5.262;2023-04-19T05:00:10;12.30;65.40
12839;DHT22;6486;51.034;5.262;2023-04-19T05:02:36;12.30;65.50
12839;DHT22;6486;51.034;5.262;2023-04-19T05:05:02;12.30;65.50
12839;DHT22;6486;51.034;5.262;2023-04-19T05:07:28;12.30;65.60
12839;DHT22;6486;51.034;5.262;2023-04-19T05:09:53;12.30;65.70
12839;DHT22;6486;51.034;5.262;2023-04-19T05:12:19;12.30;65.80
12839;DHT22;6486;51.034;5.262;2023-04-19T05:14:45;12.30;65.80
12839;DHT22;6486;51.034;5.262;2023-04-19T05:17:10;12.40;66.00
12839;DHT22;6486;51.034;5.262;2023-04-19T05:19:36;12.40;66.70
12839;DHT22;6486;51.034;5.262;2023-04-19T05:22:01;12.40;66.10
12839;DHT22;6486;51.034;5.262;2023-04-19T05:24:27;12.40;66.20
12839;DHT22;6486;51.034;5.262;2023-04-19T05:26:52;12.40;66.30
12839;DHT22;6486;51.034;5.262;2023-04-19T05:29:18;12.40;66.40
12839;DHT22;6486;51.034;5.262;2023-04-19T05:31:44;12.40;66.40
12839;DHT22;6486;51.034;5.262;2023-04-19T05:34:09;12.40;66.40
12839;DHT22;6486;51.034;5.262;2023-04-19T05:36:35;12.50;66.40
12839;DHT22;6486;51.034;5.262;2023-04-19T05:39:00;12.60;66.50
12839;DHT22;6486;51.034;5.262;2023-04-19T05:41:26;12.60;66.50
12839;DHT22;6486;51.034;5.262;2023-04-19T05:43:52;12.60;66.40
12839;DHT22;6486;51.034;5.262;2023-04-19T05:46:17;12.70;66.60
12839;DHT22;6486;51.034;5.262;2023-04-19T05:48:43;12.70;66.60
12839;DHT22;6486;51.034;5.262;2023-04-19T05:51:08;12.70;66.60
12839;DHT22;6486;51.034;5.262;2023-04-19T05:53:34;12.70;66.50
12839;DHT22;6486;51.034;5.262;2023-04-19T05:55:59;12.70;66.50
12839;DHT22;6486;51.034;5.262;2023-04-19T05:58:25;12.70;66.50
12839;DHT22;6486;51.034;5.262;2023-04-19T06:00:51;12.80;66.50
12839;DHT22;6486;51.034;5.262;2023-04-19T06:03:17;12.90;66.50
12839;DHT22;6486;51.034;5.262;2023-04-19T06:05:42;12.90;66.40
12839;DHT22;6486;51.034;5.262;2023-04-19T06:08:08;12.90;66.40
12839;DHT22;6486;51.034;5.262;2023-04-19T06:10:34;13.00;66.30
12839;DHT22;6486;51.034;5.262;2023-04-19T06:13:00;13.00;66.30
12839;DHT22;6486;51.034;5.262;2023-04-19T06:15:26;13.00;66.20
12839;DHT22;6486;51.034;5.262;2023-04-19T06:17:52;13.10;66.20
12839;DHT22;6486;51.034;5.262;2023-04-19T06:20:17;13.10;66.20
12839;DHT22;6486;51.034;5.262;2023-04-19T06:22:47;13.20;66.10
12839;DHT22;6486;51.034;5.262;2023-04-19T06:25:13;13.30;66.10
12839;DHT22;6486;51.034;5.262;2023-04-19T06:27:39;13.30;66.00
12839;DHT22;6486;51.034;5.262;2023-04-19T06:30:05;13.40;66.60
12839;DHT22;6486;51.034;5.262;2023-04-19T06:32:31;13.50;65.90
12839;DHT22;6486;51.034;5.262;2023-04-19T06:34:56;13.50;65.80
12839;DHT22;6486;51.034;5.262;2023-04-19T06:37:22;13.50;65.70
12839;DHT22;6486;51.034;5.262;2023-04-19T06:39:48;13.60;65.60
12839;DHT22;6486;51.034;5.262;2023-04-19T06:42:13;13.70;65.50
12839;DHT22;6486;51.034;5.262;2023-04-19T06:44:39;13.80;65.40
12839;DHT22;6486;51.034;5.262;2023-04-19T06:47:05;13.90;65.20
12839;DHT22;6486;51.034;5.262;2023-04-19T06:49:30;14.10;65.10
12839;DHT22;6486;51.034;5.262;2023-04-19T06:51:58;14.20;64.90
12839;DHT22;6486;51.034;5.262;2023-04-19T06:54:24;14.30;64.60
12839;DHT22;6486;51.034;5.262;2023-04-19T06:56:49;14.40;64.50
12839;DHT22;6486;51.034;5.262;2023-04-19T06:59:18;14.40;64.30
12839;DHT22;6486;51.034;5.262;2023-04-19T07:01:44;14.50;64.20
12839;DHT22;6486;51.034;5.262;2023-04-19T07:04:10;14.40;64.10
12839;DHT22;6486;51.034;5.262;2023-04-19T07:06:37;14.40;64.00
12839;DHT22;6486;51.034;5.262;2023-04-19T07:09:04;14.50;63.90
12839;DHT22;6486;51.034;5.262;2023-04-19T07:11:30;14.60;63.60
12839;DHT22;6486;51.034;5.262;2023-04-19T07:13:55;14.70;63.40
12839;DHT22;6486;51.034;5.262;2023-04-19T07:16:21;14.80;63.20
12839;DHT22;6486;51.034;5.262;2023-04-19T07:18:47;14.80;63.00
12839;DHT22;6486;51.034;5.262;2023-04-19T07:21:12;15.00;62.90
12839;DHT22;6486;51.034;5.262;2023-04-19T07:23:38;15.10;62.70
12839;DHT22;6486;51.034;5.262;2023-04-19T07:26:04;15.20;62.40
12839;DHT22;6486;51.034;5.262;2023-04-19T07:28:29;15.30;62.10
12839;DHT22;6486;51.034;5.262;2023-04-19T07:30:56;15.40;62.00
12839;DHT22;6486;51.034;5.262;2023-04-19T07:33:22;15.40;61.60
12839;DHT22;6486;51.034;5.262;2023-04-19T07:35:49;15.50;61.30
12839;DHT22;6486;51.034;5.262;2023-04-19T07:38:14;15.50;61.00
12839;DHT22;6486;51.034;5.262;2023-04-19T07:40:40;15.60;61.00
12839;DHT22;6486;51.034;5.262;2023-04-19T07:43:05;15.60;60.90
12839;DHT22;6486;51.034;5.262;2023-04-19T07:45:32;15.70;60.60
12839;DHT22;6486;51.034;5.262;2023-04-19T07:47:57;15.80;60.30
12839;DHT22;6486;51.034;5.262;2023-04-19T07:50:24;15.80;60.00
12839;DHT22;6486;51.034;5.262;2023-04-19T07:52:51;15.80;59.50
12839;DHT22;6486;51.034;5.262;2023-04-19T07:55:16;15.90;59.40
12839;DHT22;6486;51.034;5.262;2023-04-19T07:57:42;15.90;59.00
12839;DHT22;6486;51.034;5.262;2023-04-19T08:00:17;16.00;58.70
12839;DHT22;6486;51.034;5.262;2023-04-19T08:02:47;16.10;58.50
12839;DHT22;6486;51.034;5.262;2023-04-19T08:05:14;16.20;58.10
12839;DHT22;6486;51.034;5.262;2023-04-19T08:07:44;16.30;57.90
12839;DHT22;6486;51.034;5.262;2023-04-19T08:10:10;16.30;57.70
12839;DHT22;6486;51.034;5.262;2023-04-19T08:12:36;16.40;57.70
12839;DHT22;6486;51.034;5.262;2023-04-19T08:15:06;16.50;57.60
12839;DHT22;6486;51.034;5.262;2023-04-19T08:17:33;16.70;57.40
12839;DHT22;6486;51.034;5.262;2023-04-19T08:19:58;16.80;57.20
12839;DHT22;6486;51.034;5.262;2023-04-19T08:22:24;16.90;57.10
12839;DHT22;6486;51.034;5.262;2023-04-19T08:24:50;17.00;56.60
12839;DHT22;6486;51.034;5.262;2023-04-19T08:27:19;17.10;56.40
12839;DHT22;6486;51.034;5.262;2023-04-19T08:29:45;17.20;56.10
12839;DHT22;6486;51.034;5.262;2023-04-19T08:32:11;17.30;56.00
12839;DHT22;6486;51.034;5.262;2023-04-19T08:34:38;17.40;55.80
12839;DHT22;6486;51.034;5.262;2023-04-19T08:37:04;17.50;55.50
12839;DHT22;6486;51.034;5.262;2023-04-19T08:39:32;17.60;55.10
12839;DHT22;6486;51.034;5.262;2023-04-19T08:42:06;17.70;55.00
12839;DHT22;6486;51.034;5.262;2023-04-19T08:44:32;17.80;55.00
12839;DHT22;6486;51.034;5.262;2023-04-19T08:46:58;18.00;54.90
12839;DHT22;6486;51.034;5.262;2023-04-19T08:49:27;18.20;54.70
12839;DHT22;6486;51.034;5.262;2023-04-19T08:51:54;18.20;54.40
12839;DHT22;6486;51.034;5.262;2023-04-19T08:54:22;18.30;54.30
12839;DHT22;6486;51.034;5.262;2023-04-19T08:56:48;18.40;54.10
12839;DHT22;6486;51.034;5.262;2023-04-19T08:59:14;18.50;53.70
12839;DHT22;6486;51.034;5.262;2023-04-19T09:01:40;18.60;53.30
12839;DHT22;6486;51.034;5.262;2023-04-19T09:04:06;18.70;53.30
12839;DHT22;6486;51.034;5.262;2023-04-19T09:06:38;18.80;53.20
12839;DHT22;6486;51.034;5.262;2023-04-19T09:09:33;18.90;53.00
12839;DHT22;6486;51.034;5.262;2023-04-19T09:12:00;19.00;52.50
12839;DHT22;6486;51.034;5.262;2023-04-19T09:14:27;19.10;52.40
12839;DHT22;6486;51.034;5.262;2023-04-19T09:16:53;19.20;52.10
12839;DHT22;6486;51.034;5.262;2023-04-19T09:19:19;19.30;52.10
12839;DHT22;6486;51.034;5.262;2023-04-19T09:21:45;19.40;51.70
12839;DHT22;6486;51.034;5.262;2023-04-19T09:24:11;19.50;51.10
12839;DHT22;6486;51.034;5.262;2023-04-19T09:26:37;19.50;50.80
12839;DHT22;6486;51.034;5.262;2023-04-19T09:29:04;19.50;50.70
12839;DHT22;6486;51.034;5.262;2023-04-19T09:31:35;19.60;50.40
12839;DHT22;6486;51.034;5.262;2023-04-19T09:34:17;19.60;50.10
12839;DHT22;6486;51.034;5.262;2023-04-19T09:36:44;19.70;49.80
12839;DHT22;6486;51.034;5.262;2023-04-19T09:39:10;19.70;49.20
12839;DHT22;6486;51.034;5.262;2023-04-19T09:41:52;19.70;49.00
12839;DHT22;6486;51.034;5.262;2023-04-19T09:44:18;19.80;48.70
12839;DHT22;6486;51.034;5.262;2023-04-19T09:46:44;19.80;48.50
12839;DHT22;6486;51.034;5.262;2023-04-19T09:51:46;19.80;47.90
12839;DHT22;6486;51.034;5.262;2023-04-19T09:54:14;19.90;47.60
12839;DHT22;6486;51.034;5.262;2023-04-19T09:56:40;20.00;47.50
12839;DHT22;6486;51.034;5.262;2023-04-19T09:59:06;20.10;47.20
12839;DHT22;6486;51.034;5.262;2023-04-19T10:01:36;20.20;47.00
12839;DHT22;6486;51.034;5.262;2023-04-19T10:04:05;20.30;46.90
12839;DHT22;6486;51.034;5.262;2023-04-19T10:06:32;20.40;46.60
12839;DHT22;6486;51.034;5.262;2023-04-19T10:09:00;20.50;46.40
12839;DHT22;6486;51.034;5.262;2023-04-19T10:11:34;20.60;46.00
12839;DHT22;6486;51.034;5.262;2023-04-19T10:14:05;20.70;45.30
12839;DHT22;6486;51.034;5.262;2023-04-19T10:16:32;20.80;45.10
12839;DHT22;6486;51.034;5.262;2023-04-19T10:18:58;20.80;45.00
12839;DHT22;6486;51.034;5.262;2023-04-19T10:21:26;21.00;44.90
12839;DHT22;6486;51.034;5.262;2023-04-19T10:23:53;21.10;44.80
12839;DHT22;6486;51.034;5.262;2023-04-19T10:26:19;21.20;43.90
12839;DHT22;6486;51.034;5.262;2023-04-19T10:28:46;21.30;43.50
12839;DHT22;6486;51.034;5.262;2023-04-19T10:31:12;21.40;43.20
12839;DHT22;6486;51.034;5.262;2023-04-19T10:33:39;21.40;42.90
12839;DHT22;6486;51.034;5.262;2023-04-19T10:36:08;21.50;42.50
12839;DHT22;6486;51.034;5.262;2023-04-19T10:38:47;21.60;42.30
12839;DHT22;6486;51.034;5.262;2023-04-19T10:41:22;21.60;42.20
12839;DHT22;6486;51.034;5.262;2023-04-19T10:49:06;21.90;41.70
12839;DHT22;6486;51.034;5.262;2023-04-19T10:51:32;22.00;41.10
12839;DHT22;6486;51.034;5.262;2023-04-19T10:54:04;22.10;40.90
12839;DHT22;6486;51.034;5.262;2023-04-19T11:09:33;22.30;38.20
12839;DHT22;6486;51.034;5.262;2023-04-19T11:14:33;22.30;37.90
12839;DHT22;6486;51.034;5.262;2023-04-19T11:16:59;22.40;37.60
12839;DHT22;6486;51.034;5.262;2023-04-19T11:19:25;22.50;37.10
12839;DHT22;6486;51.034;5.262;2023-04-19T11:21:51;22.50;36.90
12839;DHT22;6486;51.034;5.262;2023-04-19T11:24:16;22.60;36.50
12839;DHT22;6486;51.034;5.262;2023-04-19T11:26:46;22.60;36.00
12839;DHT22;6486;51.034;5.262;2023-04-19T11:29:13;22.60;35.80
12839;DHT22;6486;51.034;5.262;2023-04-19T11:31:39;22.60;35.20
12839;DHT22;6486;51.034;5.262;2023-04-19T11:34:05;22.60;35.20
12839;DHT22;6486;51.034;5.262;2023-04-19T11:36:30;22.70;35.10
12839;DHT22;6486;51.034;5.262;2023-04-19T11:39:03;22.80;34.80
12839;DHT22;6486;51.034;5.262;2023-04-19T11:41:36;22.90;34.40
12839;DHT22;6486;51.034;5.262;2023-04-19T11:44:02;23.00;34.00
12839;DHT22;6486;51.034;5.262;2023-04-19T11:46:28;23.00;33.10
12839;DHT22;6486;51.034;5.262;2023-04-19T11:48:53;23.00;32.60
12839;DHT22;6486;51.034;5.262;2023-04-19T11:51:20;23.00;32.70
12839;DHT22;6486;51.034;5.262;2023-04-19T11:53:46;23.00;33.00
12839;DHT22;6486;51.034;5.262;2023-04-19T11:56:11;23.00;32.90
12839;DHT22;6486;51.034;5.262;2023-04-19T11:58:43;23.10;32.90
12839;DHT22;6486;51.034;5.262;2023-04-19T12:01:20;23.10;31.40
12839;DHT22;6486;51.034;5.262;2023-04-19T12:03:46;23.20;31.40
12839;DHT22;6486;51.034;5.262;2023-04-19T12:06:18;23.20;31.30
12839;DHT22;6486;51.034;5.262;2023-04-19T12:08:48;23.10;30.40
12839;DHT22;6486;51.034;5.262;2023-04-19T12:11:15;23.10;30.00
12839;DHT22;6486;51.034;5.262;2023-04-19T12:13:41;23.10;30.10
12839;DHT22;6486;51.034;5.262;2023-04-19T12:16:09;23.10;30.00
12839;DHT22;6486;51.034;5.262;2023-04-19T12:18:51;23.20;30.00
12839;DHT22;6486;51.034;5.262;2023-04-19T12:21:27;23.30;30.20
12839;DHT22;6486;51.034;5.262;2023-04-19T12:23:57;23.30;30.20
12839;DHT22;6486;51.034;5.262;2023-04-19T12:26:25;23.40;30.00
12839;DHT22;6486;51.034;5.262;2023-04-19T12:28:51;23.40;30.60
12839;DHT22;6486;51.034;5.262;2023-04-19T12:31:16;23.50;29.40
12839;DHT22;6486;51.034;5.262;2023-04-19T12:33:42;23.50;29.30
12839;DHT22;6486;51.034;5.262;2023-04-19T12:36:08;23.40;29.00
12839;DHT22;6486;51.034;5.262;2023-04-19T12:38:33;23.30;28.80
12839;DHT22;6486;51.034;5.262;2023-04-19T12:40:59;23.30;28.40
12839;DHT22;6486;51.034;5.262;2023-04-19T12:43:25;23.30;28.50
12839;DHT22;6486;51.034;5.262;2023-04-19T12:45:50;23.40;28.40
12839;DHT22;6486;51.034;5.262;2023-04-19T12:48:16;23.50;28.30
12839;DHT22;6486;51.034;5.262;2023-04-19T12:50:42;23.60;28.40
12839;DHT22;6486;51.034;5.262;2023-04-19T12:53:07;23.60;28.60
12839;DHT22;6486;51.034;5.262;2023-04-19T12:55:33;23.70;28.10
12839;DHT22;6486;51.034;5.262;2023-04-19T12:57:59;23.70;28.10
12839;DHT22;6486;51.034;5.262;2023-04-19T13:00:25;23.80;28.20
12839;DHT22;6486;51.034;5.262;2023-04-19T13:02:50;23.70;28.10
12839;DHT22;6486;51.034;5.262;2023-04-19T13:05:16;23.70;27.80
12839;DHT22;6486;51.034;5.262;2023-04-19T13:07:42;23.60;27.60
12839;DHT22;6486;51.034;5.262;2023-04-19T13:10:08;23.60;27.50
12839;DHT22;6486;51.034;5.262;2023-04-19T13:12:34;23.60;27.40
12839;DHT22;6486;51.034;5.262;2023-04-19T13:15:00;23.50;26.90
12839;DHT22;6486;51.034;5.262;2023-04-19T13:17:25;23.50;26.80
12839;DHT22;6486;51.034;5.262;2023-04-19T13:19:51;23.40;26.30
12839;DHT22;6486;51.034;5.262;2023-04-19T13:22:17;23.40;26.40
12839;DHT22;6486;51.034;5.262;2023-04-19T13:24:42;23.40;26.40
12839;DHT22;6486;51.034;5.262;2023-04-19T13:27:08;23.40;26.60
12839;DHT22;6486;51.034;5.262;2023-04-19T13:29:34;23.40;26.70
12839;DHT22;6486;51.034;5.262;2023-04-19T13:31:59;23.30;26.70
12839;DHT22;6486;51.034;5.262;2023-04-19T13:34:25;23.40;26.90
12839;DHT22;6486;51.034;5.262;2023-04-19T13:36:50;23.40;26.80
12839;DHT22;6486;51.034;5.262;2023-04-19T13:39:16;23.50;26.70
12839;DHT22;6486;51.034;5.262;2023-04-19T13:41:42;23.60;26.90
12839;DHT22;6486;51.034;5.262;2023-04-19T13:44:07;23.60;27.00
12839;DHT22;6486;51.034;5.262;2023-04-19T13:46:33;23.70;26.80
12839;DHT22;6486;51.034;5.262;2023-04-19T13:48:58;23.70;26.90
12839;DHT22;6486;51.034;5.262;2023-04-19T13:51:25;23.70;26.30
12839;DHT22;6486;51.034;5.262;2023-04-19T13:53:51;23.70;25.70
12839;DHT22;6486;51.034;5.262;2023-04-19T13:56:17;23.70;25.40
12839;DHT22;6486;51.034;5.262;2023-04-19T13:58:43;23.70;25.50
12839;DHT22;6486;51.034;5.262;2023-04-19T14:01:08;23.60;25.60
12839;DHT22;6486;51.034;5.262;2023-04-19T14:03:34;23.70;25.70
12839;DHT22;6486;51.034;5.262;2023-04-19T14:06:00;23.70;25.80
12839;DHT22;6486;51.034;5.262;2023-04-19T14:08:26;23.80;25.90
12839;DHT22;6486;51.034;5.262;2023-04-19T14:10:51;23.80;25.20
12839;DHT22;6486;51.034;5.262;2023-04-19T14:13:17;23.70;24.90
12839;DHT22;6486;51.034;5.262;2023-04-19T14:15:43;23.80;25.00
12839;DHT22;6486;51.034;5.262;2023-04-19T14:18:08;23.80;25.10
12839;DHT22;6486;51.034;5.262;2023-04-19T14:20:34;23.90;25.10
12839;DHT22;6486;51.034;5.262;2023-04-19T14:23:00;23.90;24.90
12839;DHT22;6486;51.034;5.262;2023-04-19T14:25:26;23.90;24.70
12839;DHT22;6486;51.034;5.262;2023-04-19T14:27:52;23.90;24.50
12839;DHT22;6486;51.034;5.262;2023-04-19T14:30:18;23.90;24.40
12839;DHT22;6486;51.034;5.262;2023-04-19T14:32:44;23.90;24.50
12839;DHT22;6486;51.034;5.262;2023-04-19T14:35:10;24.00;24.90
12839;DHT22;6486;51.034;5.262;2023-04-19T14:37:36;24.10;24.80
12839;DHT22;6486;51.034;5.262;2023-04-19T14:40:02;24.20;24.70
12839;DHT22;6486;51.034;5.262;2023-04-19T14:42:28;24.20;24.70
12839;DHT22;6486;51.034;5.262;2023-04-19T14:44:54;24.20;24.90
12839;DHT22;6486;51.034;5.262;2023-04-19T14:47:19;24.20;24.60
12839;DHT22;6486;51.034;5.262;2023-04-19T14:49:45;24.20;24.70
12839;DHT22;6486;51.034;5.262;2023-04-19T14:52:11;24.20;24.40
12839;DHT22;6486;51.034;5.262;2023-04-19T14:54:36;24.20;24.00
12839;DHT22;6486;51.034;5.262;2023-04-19T14:57:02;24.20;23.90
12839;DHT22;6486;51.034;5.262;2023-04-19T14:59:28;24.20;23.50
12839;DHT22;6486;51.034;5.262;2023-04-19T15:01:53;24.10;23.50
12839;DHT22;6486;51.034;5.262;2023-04-19T15:04:19;24.00;23.50
12839;DHT22;6486;51.034;5.262;2023-04-19T15:06:45;24.10;23.80
12839;DHT22;6486;51.034;5.262;2023-04-19T15:09:11;24.20;23.90
12839;DHT22;6486;51.034;5.262;2023-04-19T15:11:37;24.20;23.90
12839;DHT22;6486;51.034;5.262;2023-04-19T15:14:03;24.20;23.90
12839;DHT22;6486;51.034;5.262;2023-04-19T15:16:28;24.20;23.80
12839;DHT22;6486;51.034;5.262;2023-04-19T15:18:54;24.20;23.90
12839;DHT22;6486;51.034;5.262;2023-04-19T15:21:20;24.30;24.30
12839;DHT22;6486;51.034;5.262;2023-04-19T15:23:46;24.40;24.60
12839;DHT22;6486;51.034;5.262;2023-04-19T15:26:12;24.60;24.80
12839;DHT22;6486;51.034;5.262;2023-04-19T15:28:37;24.70;24.80
12839;DHT22;6486;51.034;5.262;2023-04-19T15:31:05;24.80;24.80
12839;DHT22;6486;51.034;5.262;2023-04-19T15:33:31;25.00;24.90
12839;DHT22;6486;51.034;5.262;2023-04-19T15:35:58;25.10;24.40
12839;DHT22;6486;51.034;5.262;2023-04-19T15:38:26;25.20;24.40
12839;DHT22;6486;51.034;5.262;2023-04-19T15:40:53;25.20;24.10
12839;DHT22;6486;51.034;5.262;2023-04-19T15:43:19;25.50;25.00
12839;DHT22;6486;51.034;5.262;2023-04-19T15:45:45;25.80;25.10
12839;DHT22;6486;51.034;5.262;2023-04-19T15:48:10;26.00;24.60
12839;DHT22;6486;51.034;5.262;2023-04-19T15:50:37;26.30;24.50
12839;DHT22;6486;51.034;5.262;2023-04-19T15:53:04;26.50;24.40
12839;DHT22;6486;51.034;5.262;2023-04-19T15:55:31;26.80;24.30
12839;DHT22;6486;51.034;5.262;2023-04-19T15:57:56;27.10;24.20
12839;DHT22;6486;51.034;5.262;2023-04-19T16:00:22;27.50;24.10
12839;DHT22;6486;51.034;5.262;2023-04-19T16:02:48;27.80;23.40